Allendale, Indiana
Current Conditions -  °F | °C
As of 11:53 AM on Sunday 23 Nov 2014 (Local Time) from KHUF Reporting Station
Overcast Overcast  
Wind Chill: 52°   Ceiling: 800
Heat Index: 52°   Visibility: 7mi
Dew Point: 49°   Wind: 10mph
Humidity: 89%   Direction: 150°SSE
Pressure: 29.73"   Gusts: NA
Location:  39.3587°N, 87.4056°W
Report Text: KHUF 231653Z 15009KT 7SM BKN008 BKN013 OVC024 11/09 A2973 RMK AO2 RAB1557E30 CIG 006V011 SLP069 P0001 T01110094
Loading
Personal Weather Stations






























Interactive Weather Map New forecast layout! Learn more

10-Day Weather Forecast

Advertisements
Track Severe Weather on mobile